Time;durP1;ratioP1;P1;durP2;ratioP2;P2;SDS_P1;SDS_P2;PMS_P1;PMS_P2;Temp;Humidity;BMP_temperature;BMP_pressure;BME280_temperature;BME280_humidity;BME280_pressure;Samples;Min_cycle;Max_cycle;Signal;HPM_P1;HPM_P2
2023/08/01 00:00:46;;;;;;;43.03;40.90;;;;;;;;;;5173085;27;20540;-84
2023/08/01 00:03:14;;;;;;;43.77;41.57;;;;;;;;;;5171667;27;20484;-84
2023/08/01 00:05:45;;;;;;;43.53;41.23;;;;;;;;;;5170862;27;20472;-84
2023/08/01 00:08:13;;;;;;;42.83;40.57;;;;;;;;;;5171077;27;20454;-84
2023/08/01 00:10:40;;;;;;;43.83;41.43;;;;;;;;;;5169917;27;20482;-84
2023/08/01 00:13:07;;;;;;;46.30;43.97;;;;;;;;;;5169421;27;20442;-84
2023/08/01 00:15:34;;;;;;;45.20;43.00;;;;;;;;;;5169825;27;20447;-84
2023/08/01 00:18:02;;;;;;;45.63;43.23;;;;;;;;;;5169975;27;20450;-84
2023/08/01 00:20:29;;;;;;;45.33;42.93;;;;;;;;;;5170424;27;20454;-82
2023/08/01 00:22:57;;;;;;;48.17;45.73;;;;;;;;;;5171526;27;20424;-84
2023/08/01 00:25:25;;;;;;;51.93;49.33;;;;;;;;;;5171518;27;20470;-84
2023/08/01 00:27:52;;;;;;;52.97;50.27;;;;;;;;;;5171359;27;20745;-84
2023/08/01 00:30:19;;;;;;;51.87;49.17;;;;;;;;;;5170012;27;20465;-84
2023/08/01 00:32:47;;;;;;;49.70;47.20;;;;;;;;;;5172607;27;20438;-84
2023/08/01 00:35:16;;;;;;;51.00;48.40;;;;;;;;;;5172635;27;20518;-83
2023/08/01 00:37:43;;;;;;;52.63;50.03;;;;;;;;;;5177366;27;20445;-84
2023/08/01 00:40:11;;;;;;;52.83;50.03;;;;;;;;;;5172403;27;20447;-84
2023/08/01 00:42:39;;;;;;;51.37;48.77;;;;;;;;;;5171953;27;20450;-84
2023/08/01 00:45:07;;;;;;;49.47;46.97;;;;;;;;;;5169561;27;20561;-84
2023/08/01 00:47:35;;;;;;;51.67;49.00;;;;;;;;;;5168653;27;20450;-84
2023/08/01 00:50:03;;;;;;;53.67;50.73;;;;;;;;;;5170845;27;20469;-84
2023/08/01 00:52:30;;;;;;;51.87;48.97;;;;;;;;;;5169914;27;20456;-84
2023/08/01 00:54:58;;;;;;;54.73;51.93;;;;;;;;;;5169381;27;20463;-84
2023/08/01 00:57:25;;;;;;;52.20;49.40;;;;;;;;;;5168297;27;20415;-84
2023/08/01 00:59:55;;;;;;;54.30;51.40;;;;;;;;;;5168942;27;20442;-84
2023/08/01 01:02:22;;;;;;;53.90;50.97;;;;;;;;;;5170962;27;20786;-84
2023/08/01 01:04:49;;;;;;;55.40;52.23;;;;;;;;;;5171896;27;20450;-84
2023/08/01 01:07:18;;;;;;;54.67;51.87;;;;;;;;;;5171876;27;20458;-84
2023/08/01 01:09:46;;;;;;;55.00;52.00;;;;;;;;;;5171642;27;20393;-84
2023/08/01 01:12:13;;;;;;;63.93;60.33;;;;;;;;;;5170610;27;20421;-84
2023/08/01 01:14:40;;;;;;;62.90;59.20;;;;;;;;;;5171843;27;20442;-84
2023/08/01 01:17:09;;;;;;;60.27;56.87;;;;;;;;;;5170834;27;20474;-85
2023/08/01 01:19:36;;;;;;;62.00;58.27;;;;;;;;;;5168271;27;20785;-84
2023/08/01 01:22:06;;;;;;;63.07;59.23;;;;;;;;;;5167913;27;20937;-84
2023/08/01 01:24:34;;;;;;;65.70;62.10;;;;;;;;;;5167313;27;20416;-84
2023/08/01 01:27:03;;;;;;;62.03;58.60;;;;;;;;;;5167081;27;20457;-84
2023/08/01 01:29:31;;;;;;;59.63;56.43;;;;;;;;;;5169806;27;20476;-84
2023/08/01 01:31:58;;;;;;;62.80;59.20;;;;;;;;;;5166544;27;20486;-84
2023/08/01 01:34:25;;;;;;;60.90;57.50;;;;;;;;;;5166584;27;20442;-84
2023/08/01 01:36:52;;;;;;;59.10;55.80;;;;;;;;;;5164865;27;20469;-84
2023/08/01 01:39:21;;;;;;;64.50;61.10;;;;;;;;;;5163603;27;20420;-84
2023/08/01 01:41:48;;;;;;;63.60;60.10;;;;;;;;;;5163855;27;20424;-84
2023/08/01 01:44:15;;;;;;;62.80;59.40;;;;;;;;;;5163662;27;20454;-84
2023/08/01 01:46:43;;;;;;;61.60;58.00;;;;;;;;;;5163159;27;20438;-83
2023/08/01 01:49:10;;;;;;;62.10;58.40;;;;;;;;;;5163630;27;20426;-84
2023/08/01 01:51:37;;;;;;;59.83;56.37;;;;;;;;;;5173268;27;20498;-84
2023/08/01 01:54:04;;;;;;;61.83;58.27;;;;;;;;;;5164512;27;20477;-84
2023/08/01 01:56:33;;;;;;;61.23;57.80;;;;;;;;;;5163353;27;20467;-84
2023/08/01 01:59:00;;;;;;;58.67;55.27;;;;;;;;;;5157909;27;20462;-84
2023/08/01 02:01:28;;;;;;;64.63;61.03;;;;;;;;;;5159281;27;20440;-83
2023/08/01 02:03:55;;;;;;;62.67;59.30;;;;;;;;;;5166025;27;20413;-84
2023/08/01 02:06:22;;;;;;;60.00;56.27;;;;;;;;;;5165736;27;20446;-84
2023/08/01 02:08:49;;;;;;;61.73;58.17;;;;;;;;;;5171177;27;20479;-84
2023/08/01 02:11:16;;;;;;;60.90;57.20;;;;;;;;;;5167756;27;20499;-84
2023/08/01 02:13:44;;;;;;;64.27;60.57;;;;;;;;;;5159402;27;20449;-84
2023/08/01 02:16:12;;;;;;;64.77;61.07;;;;;;;;;;5161682;27;20439;-84
2023/08/01 02:18:39;;;;;;;65.73;61.60;;;;;;;;;;5161090;27;20440;-85
2023/08/01 02:21:06;;;;;;;70.27;64.73;;;;;;;;;;5163332;27;20466;-85
2023/08/01 02:23:36;;;;;;;63.47;59.17;;;;;;;;;;5164846;27;20424;-84
2023/08/01 02:26:03;;;;;;;62.63;58.93;;;;;;;;;;5159692;27;20416;-84
2023/08/01 02:28:30;;;;;;;58.40;54.73;;;;;;;;;;5158459;27;20462;-84
2023/08/01 02:30:59;;;;;;;60.53;56.80;;;;;;;;;;5160274;27;20482;-85
2023/08/01 02:33:26;;;;;;;63.20;59.13;;;;;;;;;;5160230;27;20412;-84
2023/08/01 02:35:53;;;;;;;65.63;61.60;;;;;;;;;;5159705;27;21126;-84
2023/08/01 02:38:20;;;;;;;60.80;57.20;;;;;;;;;;5159760;27;21247;-84
2023/08/01 02:40:47;;;;;;;61.57;57.97;;;;;;;;;;5160405;27;20885;-85
2023/08/01 02:43:14;;;;;;;67.27;63.40;;;;;;;;;;5160540;27;20454;-84
2023/08/01 02:45:43;;;;;;;64.97;61.10;;;;;;;;;;5159133;27;20405;-84
2023/08/01 02:48:11;;;;;;;69.73;65.73;;;;;;;;;;5159716;27;20467;-84
2023/08/01 02:50:38;;;;;;;64.80;60.90;;;;;;;;;;5159961;27;20441;-84
2023/08/01 02:53:06;;;;;;;64.03;60.33;;;;;;;;;;5158915;27;20441;-84
2023/08/01 02:55:33;;;;;;;62.20;58.53;;;;;;;;;;5160076;27;20433;-84
2023/08/01 02:58:00;;;;;;;62.03;58.17;;;;;;;;;;5159396;27;20462;-84
2023/08/01 03:00:27;;;;;;;61.53;57.83;;;;;;;;;;5162746;27;20498;-84
2023/08/01 03:02:54;;;;;;;62.63;58.73;;;;;;;;;;5160352;27;20442;-84
2023/08/01 03:05:23;;;;;;;64.50;60.27;;;;;;;;;;5161719;27;20421;-85
2023/08/01 03:07:50;;;;;;;67.03;62.83;;;;;;;;;;5160769;27;20409;-84
2023/08/01 03:10:17;;;;;;;62.10;58.10;;;;;;;;;;5161433;27;20460;-84
2023/08/01 03:12:44;;;;;;;64.23;60.13;;;;;;;;;;5161052;27;20467;-84
2023/08/01 03:15:11;;;;;;;63.37;59.47;;;;;;;;;;5160550;27;20431;-85
2023/08/01 03:17:38;;;;;;;64.83;60.90;;;;;;;;;;5161388;27;20431;-85
2023/08/01 03:20:10;;;;;;;67.87;63.67;;;;;;;;;;5161695;27;20460;-84
2023/08/01 03:22:38;;;;;;;65.60;61.30;;;;;;;;;;5160169;27;20404;-84
2023/08/01 03:25:07;;;;;;;64.57;60.97;;;;;;;;;;5160469;27;20435;-85
2023/08/01 03:27:34;;;;;;;66.23;62.43;;;;;;;;;;5160002;27;20413;-84
2023/08/01 03:30:01;;;;;;;64.20;60.17;;;;;;;;;;5157959;27;20448;-85
2023/08/01 03:32:29;;;;;;;62.63;58.90;;;;;;;;;;5160634;27;20476;-84
2023/08/01 03:34:56;;;;;;;66.03;62.03;;;;;;;;;;5161860;27;20441;-84
2023/08/01 03:37:23;;;;;;;70.10;65.63;;;;;;;;;;5160322;27;20424;-84
2023/08/01 03:39:51;;;;;;;66.07;61.87;;;;;;;;;;5157748;27;20445;-84
2023/08/01 03:42:18;;;;;;;68.93;64.90;;;;;;;;;;5158954;27;20983;-85
2023/08/01 03:44:45;;;;;;;70.10;66.17;;;;;;;;;;5160985;27;20450;-85
2023/08/01 03:47:13;;;;;;;69.17;64.97;;;;;;;;;;5159914;27;20421;-84
2023/08/01 03:49:40;;;;;;;67.93;63.63;;;;;;;;;;5165179;27;20468;-84
2023/08/01 03:52:07;;;;;;;70.77;65.70;;;;;;;;;;5165899;27;20464;-84
2023/08/01 03:54:34;;;;;;;70.93;65.53;;;;;;;;;;5165727;27;20417;-84
2023/08/01 03:57:04;;;;;;;65.17;60.93;;;;;;;;;;5166078;27;20442;-84
2023/08/01 03:59:31;;;;;;;64.60;60.33;;;;;;;;;;5165918;27;20460;-85
2023/08/01 04:01:58;;;;;;;66.80;62.67;;;;;;;;;;5166268;27;20871;-85
2023/08/01 04:04:25;;;;;;;67.97;63.57;;;;;;;;;;5167827;27;20474;-84
2023/08/01 04:06:52;;;;;;;69.60;64.63;;;;;;;;;;5166264;27;20442;-84
2023/08/01 04:09:20;;;;;;;70.40;66.03;;;;;;;;;;5165778;27;20428;-84
2023/08/01 04:11:47;;;;;;;66.63;62.33;;;;;;;;;;5164525;27;20498;-84
2023/08/01 04:14:15;;;;;;;70.03;65.70;;;;;;;;;;5163930;27;20425;-85
2023/08/01 04:16:44;;;;;;;73.97;69.23;;;;;;;;;;5166760;27;20477;-84
2023/08/01 04:19:12;;;;;;;69.03;64.43;;;;;;;;;;5167791;27;20462;-84
2023/08/01 04:21:40;;;;;;;68.30;63.90;;;;;;;;;;5168318;27;20445;-85
2023/08/01 04:24:07;;;;;;;69.80;65.30;;;;;;;;;;5166974;27;20425;-84
2023/08/01 04:26:34;;;;;;;65.83;61.53;;;;;;;;;;5164456;27;20491;-84
2023/08/01 04:29:01;;;;;;;69.80;65.40;;;;;;;;;;5164494;27;20430;-84
2023/08/01 04:31:30;;;;;;;67.80;63.13;;;;;;;;;;5164959;27;20493;-84
2023/08/01 04:33:57;;;;;;;65.60;61.50;;;;;;;;;;5167957;27;20492;-85
2023/08/01 04:36:24;;;;;;;67.37;63.27;;;;;;;;;;5168911;27;20443;-85
2023/08/01 04:38:51;;;;;;;66.13;62.10;;;;;;;;;;5168321;27;20449;-85
2023/08/01 04:41:18;;;;;;;63.83;59.97;;;;;;;;;;5166224;27;20512;-85
2023/08/01 04:43:45;;;;;;;69.93;65.97;;;;;;;;;;5168798;27;20424;-85
2023/08/01 04:46:12;;;;;;;70.30;66.07;;;;;;;;;;5167572;27;20415;-84
2023/08/01 04:48:40;;;;;;;68.00;64.10;;;;;;;;;;5167712;27;20410;-84
2023/08/01 04:51:08;;;;;;;64.13;60.33;;;;;;;;;;5169424;27;20457;-85
2023/08/01 04:53:36;;;;;;;62.80;59.03;;;;;;;;;;5167089;27;20533;-85
2023/08/01 04:56:03;;;;;;;61.30;57.50;;;;;;;;;;5169845;27;20437;-85
2023/08/01 04:58:30;;;;;;;62.57;59.07;;;;;;;;;;5174249;27;20441;-83
2023/08/01 05:00:57;;;;;;;63.17;59.37;;;;;;;;;;5163944;27;20466;-79
2023/08/01 05:03:24;;;;;;;62.00;58.07;;;;;;;;;;5163347;27;20445;-80
2023/08/01 05:05:56;;;;;;;61.53;57.83;;;;;;;;;;5166866;27;20446;-80
2023/08/01 05:08:23;;;;;;;63.67;59.37;;;;;;;;;;5166566;27;20437;-79
2023/08/01 05:10:51;;;;;;;62.87;58.67;;;;;;;;;;5167463;27;20462;-80
2023/08/01 05:13:18;;;;;;;66.23;61.90;;;;;;;;;;5165460;27;20572;-80
2023/08/01 05:15:47;;;;;;;67.20;62.60;;;;;;;;;;5164539;27;20446;-81
2023/08/01 05:18:14;;;;;;;66.60;62.33;;;;;;;;;;5162776;27;20454;-80
2023/08/01 05:20:41;;;;;;;66.50;62.20;;;;;;;;;;5168268;27;20481;-81
2023/08/01 05:23:09;;;;;;;61.43;57.63;;;;;;;;;;5162923;27;20493;-81
2023/08/01 05:25:37;;;;;;;63.90;59.90;;;;;;;;;;5164441;27;20424;-81
2023/08/01 05:28:04;;;;;;;63.57;59.40;;;;;;;;;;5164136;27;20442;-80
2023/08/01 05:30:31;;;;;;;65.30;60.90;;;;;;;;;;5162748;27;20443;-80
2023/08/01 05:32:58;;;;;;;68.37;63.17;;;;;;;;;;5163414;27;20479;-80
2023/08/01 05:35:25;;;;;;;63.60;59.10;;;;;;;;;;5166664;27;20413;-82
2023/08/01 05:37:52;;;;;;;66.77;62.00;;;;;;;;;;5163443;27;20880;-80
2023/08/01 05:40:21;;;;;;;66.90;62.00;;;;;;;;;;5163525;27;20488;-79
2023/08/01 05:42:49;;;;;;;64.37;59.97;;;;;;;;;;5163490;27;20482;-80
2023/08/01 05:45:16;;;;;;;63.50;59.37;;;;;;;;;;5164648;27;20442;-81
2023/08/01 05:47:43;;;;;;;68.90;64.40;;;;;;;;;;5161610;27;20532;-80
2023/08/01 05:50:10;;;;;;;68.43;63.70;;;;;;;;;;5164955;27;20469;-80
2023/08/01 05:52:38;;;;;;;63.70;59.30;;;;;;;;;;5163916;27;20480;-81
2023/08/01 05:55:05;;;;;;;68.30;63.60;;;;;;;;;;5163572;27;20945;-80
2023/08/01 05:57:33;;;;;;;70.77;65.30;;;;;;;;;;5160936;27;20904;-79
2023/08/01 06:00:00;;;;;;;65.80;61.80;;;;;;;;;;5159299;27;20954;-80
2023/08/01 06:02:28;;;;;;;65.20;60.90;;;;;;;;;;5158855;27;20450;-80
2023/08/01 06:04:55;;;;;;;62.17;58.13;;;;;;;;;;5160914;27;20394;-80
2023/08/01 06:07:22;;;;;;;64.33;59.90;;;;;;;;;;5161544;27;20442;-80
2023/08/01 06:09:51;;;;;;;62.37;58.33;;;;;;;;;;5160079;27;20480;-81
2023/08/01 06:12:18;;;;;;;64.10;59.93;;;;;;;;;;5160852;27;20536;-81
2023/08/01 06:14:48;;;;;;;61.77;58.03;;;;;;;;;;5161556;27;20485;-81
2023/08/01 06:17:15;;;;;;;62.03;57.53;;;;;;;;;;5171473;27;20476;-80
2023/08/01 06:19:42;;;;;;;65.33;60.73;;;;;;;;;;5143195;27;20429;-80
2023/08/01 06:22:10;;;;;;;60.73;56.30;;;;;;;;;;5159530;27;20448;-81
2023/08/01 06:24:37;;;;;;;62.53;58.20;;;;;;;;;;5160183;27;20565;-81
2023/08/01 06:27:05;;;;;;;64.47;59.47;;;;;;;;;;5162054;27;20448;-81
2023/08/01 06:29:32;;;;;;;61.10;57.00;;;;;;;;;;5159737;27;20768;-81
2023/08/01 06:32:09;;;;;;;63.37;58.57;;;;;;;;;;5161991;27;20458;-80
2023/08/01 06:34:36;;;;;;;60.80;56.80;;;;;;;;;;5154196;27;20446;-82
2023/08/01 06:37:04;;;;;;;57.93;54.37;;;;;;;;;;5158415;27;20472;-82
2023/08/01 06:39:31;;;;;;;63.70;59.27;;;;;;;;;;5162565;27;20470;-82
2023/08/01 06:41:58;;;;;;;60.37;56.47;;;;;;;;;;5158419;27;20449;-80
2023/08/01 06:44:25;;;;;;;61.80;57.07;;;;;;;;;;5162705;27;20453;-80
2023/08/01 06:46:53;;;;;;;62.80;58.27;;;;;;;;;;5161891;27;20462;-82
2023/08/01 06:49:21;;;;;;;60.33;56.43;;;;;;;;;;5164058;27;20533;-82
2023/08/01 06:51:48;;;;;;;61.83;57.67;;;;;;;;;;5160510;27;20457;-81
2023/08/01 06:54:15;;;;;;;61.50;57.40;;;;;;;;;;5155969;27;20493;-81
2023/08/01 06:56:47;;;;;;;60.60;56.27;;;;;;;;;;5139858;27;20534;-81
2023/08/01 06:59:14;;;;;;;54.50;50.60;;;;;;;;;;5141552;27;20437;-80
2023/08/01 07:01:43;;;;;;;54.13;50.43;;;;;;;;;;5144937;27;20551;-81
2023/08/01 07:04:10;;;;;;;52.60;48.60;;;;;;;;;;5160802;27;20450;-81
2023/08/01 07:06:38;;;;;;;50.87;47.60;;;;;;;;;;5160988;27;20863;-82
2023/08/01 07:09:06;;;;;;;50.43;46.80;;;;;;;;;;5160090;27;20441;-82
2023/08/01 07:11:33;;;;;;;46.63;43.20;;;;;;;;;;5159368;27;20463;-82
2023/08/01 07:14:00;;;;;;;51.73;48.00;;;;;;;;;;5162044;27;20482;-82
2023/08/01 07:16:27;;;;;;;51.60;47.73;;;;;;;;;;5162609;27;20450;-81
2023/08/01 07:18:54;;;;;;;51.73;48.03;;;;;;;;;;5159571;27;20446;-82
2023/08/01 07:21:22;;;;;;;50.70;46.77;;;;;;;;;;5159474;27;20488;-81
2023/08/01 07:23:51;;;;;;;53.00;49.20;;;;;;;;;;5160404;27;20457;-80
2023/08/01 07:26:18;;;;;;;53.57;49.40;;;;;;;;;;5160722;27;20405;-84
2023/08/01 07:28:45;;;;;;;48.97;45.50;;;;;;;;;;5137917;27;20455;-83
2023/08/01 07:31:12;;;;;;;54.90;50.73;;;;;;;;;;5138256;27;20478;-83
2023/08/01 07:33:39;;;;;;;56.17;52.30;;;;;;;;;;5137537;28;20463;-83
2023/08/01 07:36:06;;;;;;;55.67;51.63;;;;;;;;;;5138468;27;20446;-80
2023/08/01 07:38:33;;;;;;;57.00;52.90;;;;;;;;;;5140453;28;20413;-80
2023/08/01 07:41:04;;;;;;;55.27;51.57;;;;;;;;;;5159286;27;20796;-79
2023/08/01 07:43:31;;;;;;;51.00;47.67;;;;;;;;;;5160429;27;20585;-81
2023/08/01 07:45:59;;;;;;;45.13;42.37;;;;;;;;;;5161571;27;20429;-81
2023/08/01 07:48:26;;;;;;;43.50;41.10;;;;;;;;;;5161287;27;20442;-81
2023/08/01 07:50:53;;;;;;;48.97;45.47;;;;;;;;;;5161327;27;20458;-80
2023/08/01 07:53:20;;;;;;;44.43;41.70;;;;;;;;;;5164618;27;20485;-80
2023/08/01 07:55:47;;;;;;;39.13;36.67;;;;;;;;;;5164183;27;20823;-80
2023/08/01 07:58:17;;;;;;;42.40;39.30;;;;;;;;;;5166236;27;20409;-80
2023/08/01 08:00:45;;;;;;;38.10;35.00;;;;;;;;;;5163644;27;20452;-81
2023/08/01 08:03:12;;;;;;;40.30;37.70;;;;;;;;;;5166315;27;20433;-81
2023/08/01 08:05:40;;;;;;;39.23;36.53;;;;;;;;;;5168927;27;20442;-81
2023/08/01 08:08:07;;;;;;;38.63;36.13;;;;;;;;;;5169085;27;20580;-81
2023/08/01 08:10:35;;;;;;;36.30;33.50;;;;;;;;;;5155908;27;20451;-82
2023/08/01 08:13:02;;;;;;;33.10;30.70;;;;;;;;;;5146290;27;20475;-82
2023/08/01 08:15:33;;;;;;;36.23;33.77;;;;;;;;;;5142061;27;20459;-81
2023/08/01 08:30:14;;;;;;;31.97;29.67;;;;;;;;;;5175762;27;20582;-82
2023/08/01 08:32:42;;;;;;;30.07;28.00;;;;;;;;;;5178036;27;20940;-80
2023/08/01 08:35:09;;;;;;;28.47;26.27;;;;;;;;;;5175459;27;20871;-80
2023/08/01 08:37:37;;;;;;;27.90;25.97;;;;;;;;;;5177722;27;20433;-80
2023/08/01 08:40:04;;;;;;;24.67;23.07;;;;;;;;;;5175113;27;20465;-80
2023/08/01 08:42:32;;;;;;;25.07;23.50;;;;;;;;;;5182323;27;20989;-81
2023/08/01 08:45:01;;;;;;;26.50;24.60;;;;;;;;;;5179232;27;20412;-81
2023/08/01 08:47:29;;;;;;;32.10;29.70;;;;;;;;;;5179080;27;20405;-80
2023/08/01 08:49:57;;;;;;;36.57;34.03;;;;;;;;;;5176710;27;20480;-81
2023/08/01 08:52:25;;;;;;;41.80;38.00;;;;;;;;;;5176329;27;20454;-80
2023/08/01 08:54:52;;;;;;;54.33;50.17;;;;;;;;;;5177802;27;20426;-81
2023/08/01 08:57:20;;;;;;;56.67;52.03;;;;;;;;;;5178128;27;20404;-81
2023/08/01 08:59:48;;;;;;;59.17;54.90;;;;;;;;;;5181074;27;20524;-80
2023/08/01 09:02:16;;;;;;;54.00;50.50;;;;;;;;;;5179203;27;20448;-78
2023/08/01 09:04:45;;;;;;;53.77;50.03;;;;;;;;;;5185889;27;20446;-81
2023/08/01 09:07:16;;;;;;;82.30;76.43;;;;;;;;;;5182079;27;20449;-81
2023/08/01 09:09:44;;;;;;;73.53;68.27;;;;;;;;;;5181823;27;20441;-80
2023/08/01 09:12:12;;;;;;;60.70;56.40;;;;;;;;;;5182145;27;20485;-81
2023/08/01 09:14:39;;;;;;;61.77;57.60;;;;;;;;;;5183141;27;20450;-80
2023/08/01 09:17:15;;;;;;;67.37;62.77;;;;;;;;;;5184163;27;20486;-81
2023/08/01 09:19:42;;;;;;;78.53;72.97;;;;;;;;;;5182378;27;20469;-81
2023/08/01 09:22:14;;;;;;;75.93;71.00;;;;;;;;;;5182497;27;20976;-81
2023/08/01 09:24:52;;;;;;;70.80;66.50;;;;;;;;;;5181482;27;20532;-82
2023/08/01 09:27:19;;;;;;;67.70;63.30;;;;;;;;;;5181097;27;20420;-79
2023/08/01 09:29:47;;;;;;;67.93;63.20;;;;;;;;;;5175356;27;20503;-79
2023/08/01 09:32:15;;;;;;;68.60;63.90;;;;;;;;;;5152342;27;20504;-77
2023/08/01 09:34:42;;;;;;;65.87;61.43;;;;;;;;;;5144641;27;20928;-78
2023/08/01 09:37:10;;;;;;;70.83;65.37;;;;;;;;;;5141199;27;20439;-82
2023/08/01 09:39:38;;;;;;;70.70;66.10;;;;;;;;;;5142384;27;20963;-82
2023/08/01 09:42:06;;;;;;;82.10;76.90;;;;;;;;;;5145565;27;20490;-81
2023/08/01 09:44:33;;;;;;;79.33;73.70;;;;;;;;;;5145331;27;20443;-79
2023/08/01 09:47:00;;;;;;;69.67;65.27;;;;;;;;;;5149705;27;20427;-79
2023/08/01 09:49:28;;;;;;;73.13;68.60;;;;;;;;;;5145939;27;20929;-79
2023/08/01 09:51:56;;;;;;;69.63;65.20;;;;;;;;;;5145482;27;20471;-79
2023/08/01 09:54:24;;;;;;;69.00;64.20;;;;;;;;;;5146760;27;20523;-79
2023/08/01 09:56:53;;;;;;;62.90;58.87;;;;;;;;;;5144479;27;20514;-79
2023/08/01 09:59:21;;;;;;;64.53;60.43;;;;;;;;;;5146355;27;20479;-80
2023/08/01 10:01:50;;;;;;;66.07;61.60;;;;;;;;;;5147612;27;20467;-79
2023/08/01 10:04:17;;;;;;;63.30;59.10;;;;;;;;;;5144363;27;20894;-79
2023/08/01 10:06:45;;;;;;;65.73;61.27;;;;;;;;;;5142120;27;20431;-79
2023/08/01 10:09:13;;;;;;;70.07;65.40;;;;;;;;;;5146595;27;20449;-79
2023/08/01 10:11:40;;;;;;;71.47;67.00;;;;;;;;;;5142620;27;20496;-81
2023/08/01 10:14:08;;;;;;;66.30;62.10;;;;;;;;;;5143902;27;20471;-79
2023/08/01 10:16:36;;;;;;;68.57;64.10;;;;;;;;;;5147889;27;20403;-80
2023/08/01 10:19:09;;;;;;;61.57;57.97;;;;;;;;;;5148204;27;20465;-80
2023/08/01 10:21:37;;;;;;;50.97;48.13;;;;;;;;;;5168106;27;20492;-80
2023/08/01 10:24:04;;;;;;;44.30;41.30;;;;;;;;;;5168109;27;20454;-80
2023/08/01 10:26:31;;;;;;;41.60;38.90;;;;;;;;;;5169559;27;20453;-83
2023/08/01 10:29:01;;;;;;;36.77;34.63;;;;;;;;;;5170319;27;20456;-81
2023/08/01 10:31:29;;;;;;;29.63;27.93;;;;;;;;;;5168044;27;20940;-81
2023/08/01 10:34:05;;;;;;;29.23;27.60;;;;;;;;;;5168234;27;20466;-81
2023/08/01 10:36:32;;;;;;;27.00;25.13;;;;;;;;;;5170309;27;20475;-80
2023/08/01 10:39:02;;;;;;;27.03;24.90;;;;;;;;;;5171290;27;20475;-83
2023/08/01 10:41:31;;;;;;;27.73;25.80;;;;;;;;;;5169034;27;20489;-82
2023/08/01 10:44:08;;;;;;;25.30;23.50;;;;;;;;;;5172407;27;20422;-79
2023/08/01 10:46:53;;;;;;;26.10;24.27;;;;;;;;;;5166525;27;20409;-80
2023/08/01 10:49:22;;;;;;;25.90;24.20;;;;;;;;;;5169630;27;20404;-80
2023/08/01 10:51:50;;;;;;;26.67;24.63;;;;;;;;;;5162752;27;20470;-80
2023/08/01 10:54:22;;;;;;;25.87;23.73;;;;;;;;;;5166135;27;20525;-81
2023/08/01 10:56:51;;;;;;;24.70;23.10;;;;;;;;;;5163812;27;20522;-80
2023/08/01 10:59:18;;;;;;;25.10;23.50;;;;;;;;;;5159345;27;20474;-81
2023/08/01 11:01:46;;;;;;;23.17;21.77;;;;;;;;;;5161712;27;20469;-81
2023/08/01 11:04:16;;;;;;;22.43;20.83;;;;;;;;;;5162605;27;20438;-81
2023/08/01 11:06:48;;;;;;;23.80;22.20;;;;;;;;;;5160539;27;20416;-79
2023/08/01 11:09:17;;;;;;;23.13;21.67;;;;;;;;;;5163748;27;21374;-81
2023/08/01 11:11:44;;;;;;;23.53;21.70;;;;;;;;;;5163431;27;20473;-81
2023/08/01 11:14:13;;;;;;;22.50;21.00;;;;;;;;;;5162980;27;20925;-81
2023/08/01 11:16:40;;;;;;;22.10;20.60;;;;;;;;;;5160663;27;20409;-81
2023/08/01 11:19:08;;;;;;;42.43;39.63;;;;;;;;;;5159615;27;20474;-80
2023/08/01 11:21:36;;;;;;;39.10;36.50;;;;;;;;;;5169929;27;20468;-80
2023/08/01 11:24:08;;;;;;;37.93;35.50;;;;;;;;;;5148594;27;20526;-81
2023/08/01 11:26:36;;;;;;;40.40;37.30;;;;;;;;;;5144150;27;20443;-81
2023/08/01 11:29:03;;;;;;;39.00;36.40;;;;;;;;;;5138653;27;20477;-81
2023/08/01 11:31:30;;;;;;;43.83;40.83;;;;;;;;;;5154016;27;20855;-81
2023/08/01 11:33:58;;;;;;;46.13;42.53;;;;;;;;;;5161537;27;20452;-80
2023/08/01 11:36:26;;;;;;;45.93;43.03;;;;;;;;;;5160385;27;20473;-81
2023/08/01 11:38:54;;;;;;;45.63;42.63;;;;;;;;;;5159733;27;20497;-81
2023/08/01 11:41:22;;;;;;;45.80;42.60;;;;;;;;;;5160250;27;20473;-81
2023/08/01 11:43:50;;;;;;;48.10;44.87;;;;;;;;;;5161724;27;20459;-81
2023/08/01 11:46:17;;;;;;;51.37;48.07;;;;;;;;;;5159480;27;20451;-80
2023/08/01 11:48:46;;;;;;;50.70;46.60;;;;;;;;;;5160051;27;20525;-80
2023/08/01 11:51:13;;;;;;;48.70;45.50;;;;;;;;;;5163524;27;20856;-79
2023/08/01 11:53:41;;;;;;;48.73;45.53;;;;;;;;;;5164278;27;20467;-80
2023/08/01 11:56:08;;;;;;;48.07;44.93;;;;;;;;;;5161298;27;20434;-82
2023/08/01 11:58:37;;;;;;;50.77;47.20;;;;;;;;;;5160698;27;20441;-80
2023/08/01 12:01:05;;;;;;;52.23;48.63;;;;;;;;;;5161774;27;20473;-80
2023/08/01 12:03:33;;;;;;;52.77;49.27;;;;;;;;;;5161767;27;20427;-80
2023/08/01 12:06:07;;;;;;;48.80;45.30;;;;;;;;;;5160826;27;20456;-80
2023/08/01 12:08:35;;;;;;;52.53;48.53;;;;;;;;;;5161343;27;20449;-80
2023/08/01 12:11:02;;;;;;;45.93;41.80;;;;;;;;;;5159025;27;20463;-79
2023/08/01 12:13:30;;;;;;;42.33;39.53;;;;;;;;;;5160914;27;20799;-80
2023/08/01 12:15:59;;;;;;;32.10;29.80;;;;;;;;;;5160072;27;20537;-79
2023/08/01 12:18:27;;;;;;;30.57;28.67;;;;;;;;;;5161580;27;20514;-80
2023/08/01 12:20:54;;;;;;;29.97;28.20;;;;;;;;;;5164032;27;20472;-80
2023/08/01 12:23:22;;;;;;;27.87;26.17;;;;;;;;;;5151066;27;20435;-80
2023/08/01 12:25:49;;;;;;;28.70;26.80;;;;;;;;;;5144504;27;20984;-80
2023/08/01 12:28:16;;;;;;;27.73;26.23;;;;;;;;;;5143980;27;20458;-80
2023/08/01 12:30:44;;;;;;;26.63;25.23;;;;;;;;;;5146217;28;20459;-80
2023/08/01 12:33:13;;;;;;;23.60;22.30;;;;;;;;;;5162602;27;20464;-80
2023/08/01 12:35:41;;;;;;;25.97;24.00;;;;;;;;;;5164718;27;20957;-79
2023/08/01 12:38:15;;;;;;;22.30;20.97;;;;;;;;;;5169927;27;20450;-81
2023/08/01 12:40:43;;;;;;;22.97;21.33;;;;;;;;;;5167228;27;20485;-80
2023/08/01 12:43:10;;;;;;;34.70;24.23;;;;;;;;;;5164333;27;20480;-83
2023/08/01 12:45:37;;;;;;;24.70;23.20;;;;;;;;;;5149067;27;20451;-83
2023/08/01 12:48:04;;;;;;;31.03;28.37;;;;;;;;;;5141143;27;20447;-80
2023/08/01 12:50:32;;;;;;;195.43;50.60;;;;;;;;;;5151684;27;20466;-79
2023/08/01 12:53:02;;;;;;;37.30;34.33;;;;;;;;;;5160865;27;20458;-80
2023/08/01 12:55:29;;;;;;;36.30;33.53;;;;;;;;;;5155225;27;20447;-79
2023/08/01 12:57:56;;;;;;;35.80;32.93;;;;;;;;;;5138897;27;20447;-82
2023/08/01 13:00:23;;;;;;;36.00;33.50;;;;;;;;;;5139979;28;20479;-80
2023/08/01 13:02:50;;;;;;;37.87;35.23;;;;;;;;;;5142803;28;20462;-80
2023/08/01 13:05:17;;;;;;;37.50;35.10;;;;;;;;;;5142456;27;20431;-79
2023/08/01 13:07:46;;;;;;;35.57;33.17;;;;;;;;;;5144305;27;20470;-80
2023/08/01 13:10:13;;;;;;;33.00;31.00;;;;;;;;;;5142039;27;20904;-79
2023/08/01 13:12:40;;;;;;;38.00;35.50;;;;;;;;;;5142600;27;20413;-80
2023/08/01 13:15:08;;;;;;;37.70;35.50;;;;;;;;;;5142495;27;20454;-80
2023/08/01 13:17:35;;;;;;;32.73;30.67;;;;;;;;;;5143860;27;20529;-79
2023/08/01 13:20:03;;;;;;;31.40;29.50;;;;;;;;;;5141291;27;20497;-80
2023/08/01 13:22:30;;;;;;;31.47;29.47;;;;;;;;;;5147043;27;20459;-80
2023/08/01 13:24:58;;;;;;;29.70;27.60;;;;;;;;;;5144747;27;20431;-81
2023/08/01 13:27:25;;;;;;;30.00;27.50;;;;;;;;;;5143963;27;20438;-80
2023/08/01 13:29:54;;;;;;;28.67;26.77;;;;;;;;;;5142075;27;20458;-78
2023/08/01 13:32:21;;;;;;;31.60;29.70;;;;;;;;;;5146529;27;20590;-80
2023/08/01 13:34:48;;;;;;;28.20;26.30;;;;;;;;;;5147886;27;20427;-79
2023/08/01 13:37:15;;;;;;;27.83;26.10;;;;;;;;;;5146427;27;20435;-80
2023/08/01 13:39:42;;;;;;;25.37;23.70;;;;;;;;;;5144664;27;20481;-80
2023/08/01 13:42:10;;;;;;;24.53;23.13;;;;;;;;;;5145259;27;20459;-80
2023/08/01 13:44:39;;;;;;;23.00;21.70;;;;;;;;;;5147972;27;20442;-80
2023/08/01 13:47:06;;;;;;;23.33;21.97;;;;;;;;;;5144575;27;20462;-79
2023/08/01 13:49:33;;;;;;;19.80;18.80;;;;;;;;;;5146924;27;20450;-81
2023/08/01 13:52:01;;;;;;;21.30;19.80;;;;;;;;;;5144354;27;20455;-80
2023/08/01 13:54:28;;;;;;;21.10;19.90;;;;;;;;;;5148368;27;20429;-80
2023/08/01 13:56:55;;;;;;;19.67;18.53;;;;;;;;;;5142736;27;20443;-79
2023/08/01 13:59:23;;;;;;;18.83;17.63;;;;;;;;;;5142193;27;20454;-80
2023/08/01 14:01:50;;;;;;;17.40;16.57;;;;;;;;;;5143847;27;20500;-80
2023/08/01 14:04:18;;;;;;;17.23;16.13;;;;;;;;;;5144307;27;20430;-80
2023/08/01 14:06:45;;;;;;;16.57;15.57;;;;;;;;;;5143288;27;20427;-80
2023/08/01 14:09:12;;;;;;;17.00;16.20;;;;;;;;;;5143015;27;20439;-79
2023/08/01 14:11:39;;;;;;;15.70;14.90;;;;;;;;;;5141785;27;20574;-81
2023/08/01 14:14:06;;;;;;;17.33;16.23;;;;;;;;;;5144316;27;20808;-81
2023/08/01 14:16:35;;;;;;;17.00;16.20;;;;;;;;;;5146960;27;20439;-81
2023/08/01 14:19:03;;;;;;;17.87;16.97;;;;;;;;;;5147429;27;20472;-81
2023/08/01 14:21:30;;;;;;;17.80;16.80;;;;;;;;;;5143737;27;20479;-81
2023/08/01 14:23:58;;;;;;;18.97;17.47;;;;;;;;;;5139130;27;20792;-81
2023/08/01 14:26:25;;;;;;;19.30;18.00;;;;;;;;;;5139728;27;20519;-80
2023/08/01 14:28:52;;;;;;;18.20;17.03;;;;;;;;;;5139533;27;20451;-80
2023/08/01 14:31:19;;;;;;;18.67;17.60;;;;;;;;;;5140054;27;20438;-80